sensor_id;sensor_type;location;lat;lon;timestamp;P1;durP1;ratioP1;P2;durP2;ratioP2
54787;SDS011;59598;48.112;16.280;2022-09-19T00:00:34;1.25;;;0.80;;
54787;SDS011;59598;48.112;16.280;2022-09-19T00:03:05;1.80;;;1.00;;
54787;SDS011;59598;48.112;16.280;2022-09-19T00:05:39;1.00;;;0.90;;
54787;SDS011;59598;48.112;16.280;2022-09-19T00:08:11;3.53;;;1.17;;
54787;SDS011;59598;48.112;16.280;2022-09-19T00:10:43;1.13;;;1.02;;
54787;SDS011;59598;48.112;16.280;2022-09-19T00:13:21;3.50;;;1.42;;
54787;SDS011;59598;48.112;16.280;2022-09-19T00:15:52;1.27;;;1.15;;
54787;SDS011;59598;48.112;16.280;2022-09-19T00:18:26;0.95;;;0.85;;
54787;SDS011;59598;48.112;16.280;2022-09-19T00:21:01;1.30;;;1.10;;
54787;SDS011;59598;48.112;16.280;2022-09-19T00:23:33;1.33;;;1.13;;
54787;SDS011;59598;48.112;16.280;2022-09-19T00:26:28;0.98;;;0.90;;
54787;SDS011;59598;48.112;16.280;2022-09-19T00:29:02;2.22;;;1.00;;
54787;SDS011;59598;48.112;16.280;2022-09-19T00:31:37;1.65;;;1.08;;
54787;SDS011;59598;48.112;16.280;2022-09-19T00:34:09;1.33;;;0.93;;
54787;SDS011;59598;48.112;16.280;2022-09-19T00:36:43;1.35;;;1.10;;
54787;SDS011;59598;48.112;16.280;2022-09-19T00:39:16;1.20;;;0.95;;
54787;SDS011;59598;48.112;16.280;2022-09-19T00:41:52;2.47;;;1.00;;
54787;SDS011;59598;48.112;16.280;2022-09-19T00:47:04;2.25;;;0.90;;
54787;SDS011;59598;48.112;16.280;2022-09-19T00:49:42;1.83;;;1.20;;
54787;SDS011;59598;48.112;16.280;2022-09-19T00:52:21;1.15;;;1.02;;
54787;SDS011;59598;48.112;16.280;2022-09-19T00:55:03;3.35;;;1.13;;
54787;SDS011;59598;48.112;16.280;2022-09-19T00:57:55;1.08;;;0.90;;
54787;SDS011;59598;48.112;16.280;2022-09-19T01:00:43;2.80;;;0.93;;
54787;SDS011;59598;48.112;16.280;2022-09-19T01:03:14;3.83;;;1.10;;
54787;SDS011;59598;48.112;16.280;2022-09-19T01:18:08;1.15;;;1.05;;
54787;SDS011;59598;48.112;16.280;2022-09-19T01:23:58;2.15;;;1.08;;
54787;SDS011;59598;48.112;16.280;2022-09-19T01:30:14;0.65;;;0.65;;
54787;SDS011;59598;48.112;16.280;2022-09-19T01:32:52;0.90;;;0.90;;
54787;SDS011;59598;48.112;16.280;2022-09-19T01:35:35;3.10;;;0.70;;
54787;SDS011;59598;48.112;16.280;2022-09-19T01:38:11;1.10;;;1.00;;
54787;SDS011;59598;48.112;16.280;2022-09-19T01:40:53;1.33;;;1.00;;
54787;SDS011;59598;48.112;16.280;2022-09-19T01:43:26;1.25;;;1.15;;
54787;SDS011;59598;48.112;16.280;2022-09-19T01:45:58;1.98;;;0.80;;
54787;SDS011;59598;48.112;16.280;2022-09-19T01:48:46;1.17;;;0.93;;
54787;SDS011;59598;48.112;16.280;2022-09-19T01:51:39;0.50;;;0.50;;
54787;SDS011;59598;48.112;16.280;2022-09-19T02:00:22;1.20;;;0.98;;
54787;SDS011;59598;48.112;16.280;2022-09-19T02:09:20;0.75;;;0.70;;
54787;SDS011;59598;48.112;16.280;2022-09-19T02:12:15;0.60;;;0.60;;
54787;SDS011;59598;48.112;16.280;2022-09-19T02:14:51;0.40;;;0.40;;
54787;SDS011;59598;48.112;16.280;2022-09-19T02:17:28;0.70;;;0.70;;
54787;SDS011;59598;48.112;16.280;2022-09-19T02:20:10;0.90;;;0.90;;
54787;SDS011;59598;48.112;16.280;2022-09-19T02:22:48;0.73;;;0.73;;
54787;SDS011;59598;48.112;16.280;2022-09-19T02:25:24;1.17;;;0.60;;
54787;SDS011;59598;48.112;16.280;2022-09-19T02:28:13;0.80;;;0.80;;
54787;SDS011;59598;48.112;16.280;2022-09-19T02:30:56;1.05;;;0.82;;
54787;SDS011;59598;48.112;16.280;2022-09-19T02:33:30;1.55;;;0.70;;
54787;SDS011;59598;48.112;16.280;2022-09-19T02:38:56;0.57;;;0.57;;
54787;SDS011;59598;48.112;16.280;2022-09-19T02:44:52;1.88;;;0.70;;
54787;SDS011;59598;48.112;16.280;2022-09-19T02:47:39;0.60;;;0.60;;
54787;SDS011;59598;48.112;16.280;2022-09-19T02:50:33;0.70;;;0.70;;
54787;SDS011;59598;48.112;16.280;2022-09-19T02:53:32;0.63;;;0.63;;
54787;SDS011;59598;48.112;16.280;2022-09-19T02:56:18;0.60;;;0.60;;
54787;SDS011;59598;48.112;16.280;2022-09-19T02:59:07;1.00;;;0.57;;
54787;SDS011;59598;48.112;16.280;2022-09-19T03:01:51;0.60;;;0.60;;
54787;SDS011;59598;48.112;16.280;2022-09-19T03:04:31;0.63;;;0.63;;
54787;SDS011;59598;48.112;16.280;2022-09-19T03:07:14;0.85;;;0.63;;
54787;SDS011;59598;48.112;16.280;2022-09-19T03:09:52;0.60;;;0.60;;
54787;SDS011;59598;48.112;16.280;2022-09-19T03:12:34;0.60;;;0.60;;
54787;SDS011;59598;48.112;16.280;2022-09-19T03:15:09;0.70;;;0.70;;
54787;SDS011;59598;48.112;16.280;2022-09-19T03:17:46;0.75;;;0.70;;
54787;SDS011;59598;48.112;16.280;2022-09-19T03:20:22;0.50;;;0.50;;
54787;SDS011;59598;48.112;16.280;2022-09-19T03:22:55;0.90;;;0.60;;
54787;SDS011;59598;48.112;16.280;2022-09-19T03:25:29;1.08;;;1.08;;
54787;SDS011;59598;48.112;16.280;2022-09-19T03:28:01;0.82;;;0.82;;
54787;SDS011;59598;48.112;16.280;2022-09-19T03:30:33;0.77;;;0.77;;
54787;SDS011;59598;48.112;16.280;2022-09-19T03:33:05;1.05;;;0.75;;
54787;SDS011;59598;48.112;16.280;2022-09-19T03:35:36;0.70;;;0.70;;
54787;SDS011;59598;48.112;16.280;2022-09-19T03:38:11;0.60;;;0.60;;
54787;SDS011;59598;48.112;16.280;2022-09-19T03:40:42;0.55;;;0.55;;
54787;SDS011;59598;48.112;16.280;2022-09-19T03:45:49;0.60;;;0.60;;
54787;SDS011;59598;48.112;16.280;2022-09-19T03:48:24;0.60;;;0.60;;
54787;SDS011;59598;48.112;16.280;2022-09-19T03:50:57;0.88;;;0.60;;
54787;SDS011;59598;48.112;16.280;2022-09-19T03:53:32;0.50;;;0.50;;
54787;SDS011;59598;48.112;16.280;2022-09-19T03:56:07;0.70;;;0.70;;
54787;SDS011;59598;48.112;16.280;2022-09-19T03:58:44;0.70;;;0.70;;
54787;SDS011;59598;48.112;16.280;2022-09-19T04:01:18;0.63;;;0.63;;
54787;SDS011;59598;48.112;16.280;2022-09-19T04:03:52;0.80;;;0.80;;
54787;SDS011;59598;48.112;16.280;2022-09-19T04:06:28;0.63;;;0.63;;
54787;SDS011;59598;48.112;16.280;2022-09-19T04:09:07;1.10;;;0.93;;
54787;SDS011;59598;48.112;16.280;2022-09-19T04:11:40;0.60;;;0.60;;
54787;SDS011;59598;48.112;16.280;2022-09-19T04:14:14;0.70;;;0.70;;
54787;SDS011;59598;48.112;16.280;2022-09-19T04:16:47;0.65;;;0.65;;
54787;SDS011;59598;48.112;16.280;2022-09-19T04:19:19;2.10;;;0.70;;
54787;SDS011;59598;48.112;16.280;2022-09-19T04:21:56;0.57;;;0.57;;
54787;SDS011;59598;48.112;16.280;2022-09-19T04:24:32;0.60;;;0.60;;
54787;SDS011;59598;48.112;16.280;2022-09-19T04:27:03;0.80;;;0.80;;
54787;SDS011;59598;48.112;16.280;2022-09-19T04:29:40;1.95;;;0.77;;
54787;SDS011;59598;48.112;16.280;2022-09-19T04:32:11;0.75;;;0.70;;
54787;SDS011;59598;48.112;16.280;2022-09-19T04:34:46;0.77;;;0.77;;
54787;SDS011;59598;48.112;16.280;2022-09-19T04:37:18;1.00;;;0.95;;
54787;SDS011;59598;48.112;16.280;2022-09-19T04:39:50;0.70;;;0.70;;
54787;SDS011;59598;48.112;16.280;2022-09-19T04:42:21;0.52;;;0.50;;
54787;SDS011;59598;48.112;16.280;2022-09-19T04:44:55;0.88;;;0.82;;
54787;SDS011;59598;48.112;16.280;2022-09-19T04:47:30;0.60;;;0.60;;
54787;SDS011;59598;48.112;16.280;2022-09-19T04:50:04;0.63;;;0.63;;
54787;SDS011;59598;48.112;16.280;2022-09-19T04:52:38;0.90;;;0.50;;
54787;SDS011;59598;48.112;16.280;2022-09-19T04:55:10;0.52;;;0.50;;
54787;SDS011;59598;48.112;16.280;2022-09-19T04:57:42;0.60;;;0.60;;
54787;SDS011;59598;48.112;16.280;2022-09-19T05:00:13;2.33;;;0.73;;
54787;SDS011;59598;48.112;16.280;2022-09-19T05:02:45;0.57;;;0.57;;
54787;SDS011;59598;48.112;16.280;2022-09-19T05:05:17;0.75;;;0.75;;
54787;SDS011;59598;48.112;16.280;2022-09-19T05:07:49;0.80;;;0.50;;
54787;SDS011;59598;48.112;16.280;2022-09-19T05:12:55;0.80;;;0.80;;
54787;SDS011;59598;48.112;16.280;2022-09-19T05:15:30;0.95;;;0.90;;
54787;SDS011;59598;48.112;16.280;2022-09-19T05:18:02;0.80;;;0.80;;
54787;SDS011;59598;48.112;16.280;2022-09-19T05:20:36;1.17;;;0.75;;
54787;SDS011;59598;48.112;16.280;2022-09-19T05:23:13;0.52;;;0.52;;
54787;SDS011;59598;48.112;16.280;2022-09-19T05:25:45;0.98;;;0.70;;
54787;SDS011;59598;48.112;16.280;2022-09-19T05:28:19;0.52;;;0.52;;
54787;SDS011;59598;48.112;16.280;2022-09-19T05:31:00;1.55;;;0.75;;
54787;SDS011;59598;48.112;16.280;2022-09-19T05:33:40;0.82;;;0.80;;
54787;SDS011;59598;48.112;16.280;2022-09-19T05:36:12;0.68;;;0.68;;
54787;SDS011;59598;48.112;16.280;2022-09-19T05:38:46;0.60;;;0.60;;
54787;SDS011;59598;48.112;16.280;2022-09-19T05:41:20;1.50;;;0.70;;
54787;SDS011;59598;48.112;16.280;2022-09-19T05:43:59;1.17;;;1.17;;
54787;SDS011;59598;48.112;16.280;2022-09-19T05:46:32;0.90;;;0.90;;
54787;SDS011;59598;48.112;16.280;2022-09-19T05:49:06;0.65;;;0.65;;
54787;SDS011;59598;48.112;16.280;2022-09-19T05:51:45;2.97;;;0.90;;
54787;SDS011;59598;48.112;16.280;2022-09-19T05:54:17;1.23;;;1.13;;
54787;SDS011;59598;48.112;16.280;2022-09-19T05:56:51;1.55;;;0.80;;
54787;SDS011;59598;48.112;16.280;2022-09-19T05:59:24;1.48;;;0.82;;
54787;SDS011;59598;48.112;16.280;2022-09-19T06:01:58;4.95;;;1.00;;
54787;SDS011;59598;48.112;16.280;2022-09-19T06:08:15;2.80;;;0.98;;
54787;SDS011;59598;48.112;16.280;2022-09-19T06:10:48;0.77;;;0.77;;
54787;SDS011;59598;48.112;16.280;2022-09-19T06:13:25;0.70;;;0.70;;
54787;SDS011;59598;48.112;16.280;2022-09-19T06:16:19;0.87;;;0.77;;
54787;SDS011;59598;48.112;16.280;2022-09-19T06:18:55;0.85;;;0.85;;
54787;SDS011;59598;48.112;16.280;2022-09-19T06:21:28;0.68;;;0.68;;
54787;SDS011;59598;48.112;16.280;2022-09-19T06:24:02;0.90;;;0.90;;
54787;SDS011;59598;48.112;16.280;2022-09-19T06:26:34;0.50;;;0.50;;
54787;SDS011;59598;48.112;16.280;2022-09-19T06:29:13;2.50;;;0.90;;
54787;SDS011;59598;48.112;16.280;2022-09-19T06:31:47;1.95;;;1.13;;
54787;SDS011;59598;48.112;16.280;2022-09-19T06:34:24;0.77;;;0.77;;
54787;SDS011;59598;48.112;16.280;2022-09-19T06:36:55;1.08;;;0.90;;
54787;SDS011;59598;48.112;16.280;2022-09-19T06:39:27;0.80;;;0.80;;
54787;SDS011;59598;48.112;16.280;2022-09-19T06:41:58;2.10;;;0.93;;
54787;SDS011;59598;48.112;16.280;2022-09-19T06:44:32;0.60;;;0.60;;
54787;SDS011;59598;48.112;16.280;2022-09-19T06:47:06;0.90;;;0.85;;
54787;SDS011;59598;48.112;16.280;2022-09-19T06:49:38;1.05;;;0.80;;
54787;SDS011;59598;48.112;16.280;2022-09-19T06:52:12;0.88;;;0.70;;
54787;SDS011;59598;48.112;16.280;2022-09-19T06:54:44;0.57;;;0.57;;
54787;SDS011;59598;48.112;16.280;2022-09-19T06:57:18;1.80;;;0.60;;
54787;SDS011;59598;48.112;16.280;2022-09-19T06:59:54;0.82;;;0.70;;
54787;SDS011;59598;48.112;16.280;2022-09-19T07:02:33;1.63;;;0.93;;
54787;SDS011;59598;48.112;16.280;2022-09-19T07:05:07;1.73;;;0.80;;
54787;SDS011;59598;48.112;16.280;2022-09-19T07:07:39;0.82;;;0.52;;
54787;SDS011;59598;48.112;16.280;2022-09-19T07:10:18;0.60;;;0.47;;
54787;SDS011;59598;48.112;16.280;2022-09-19T07:12:51;0.70;;;0.70;;
54787;SDS011;59598;48.112;16.280;2022-09-19T07:15:28;0.60;;;0.60;;
54787;SDS011;59598;48.112;16.280;2022-09-19T07:18:04;0.50;;;0.50;;
54787;SDS011;59598;48.112;16.280;2022-09-19T07:20:43;0.70;;;0.70;;
54787;SDS011;59598;48.112;16.280;2022-09-19T07:23:16;0.80;;;0.80;;
54787;SDS011;59598;48.112;16.280;2022-09-19T07:25:52;1.05;;;0.82;;
54787;SDS011;59598;48.112;16.280;2022-09-19T07:28:28;1.85;;;1.10;;
54787;SDS011;59598;48.112;16.280;2022-09-19T07:31:00;0.70;;;0.70;;
54787;SDS011;59598;48.112;16.280;2022-09-19T07:33:35;3.30;;;0.68;;
54787;SDS011;59598;48.112;16.280;2022-09-19T07:36:09;0.80;;;0.80;;
54787;SDS011;59598;48.112;16.280;2022-09-19T07:38:42;1.92;;;0.80;;
54787;SDS011;59598;48.112;16.280;2022-09-19T07:41:13;0.93;;;0.93;;
54787;SDS011;59598;48.112;16.280;2022-09-19T07:43:47;1.10;;;0.70;;
54787;SDS011;59598;48.112;16.280;2022-09-19T07:46:22;0.80;;;0.80;;
54787;SDS011;59598;48.112;16.280;2022-09-19T07:48:57;1.48;;;0.90;;
54787;SDS011;59598;48.112;16.280;2022-09-19T07:51:28;0.55;;;0.55;;
54787;SDS011;59598;48.112;16.280;2022-09-19T07:54:03;1.08;;;1.00;;
54787;SDS011;59598;48.112;16.280;2022-09-19T07:56:39;0.52;;;0.52;;
54787;SDS011;59598;48.112;16.280;2022-09-19T07:59:10;1.00;;;1.00;;
54787;SDS011;59598;48.112;16.280;2022-09-19T08:01:42;0.57;;;0.57;;
54787;SDS011;59598;48.112;16.280;2022-09-19T08:04:13;0.90;;;0.90;;
54787;SDS011;59598;48.112;16.280;2022-09-19T08:06:47;1.50;;;0.75;;
54787;SDS011;59598;48.112;16.280;2022-09-19T08:09:19;0.80;;;0.80;;
54787;SDS011;59598;48.112;16.280;2022-09-19T08:11:52;1.47;;;1.20;;
54787;SDS011;59598;48.112;16.280;2022-09-19T08:14:27;1.38;;;1.25;;
54787;SDS011;59598;48.112;16.280;2022-09-19T08:17:06;1.60;;;0.70;;
54787;SDS011;59598;48.112;16.280;2022-09-19T08:19:46;0.70;;;0.70;;
54787;SDS011;59598;48.112;16.280;2022-09-19T08:22:20;1.83;;;0.82;;
54787;SDS011;59598;48.112;16.280;2022-09-19T08:24:52;0.98;;;0.90;;
54787;SDS011;59598;48.112;16.280;2022-09-19T08:27:24;0.65;;;0.65;;
54787;SDS011;59598;48.112;16.280;2022-09-19T08:29:57;4.00;;;0.60;;
54787;SDS011;59598;48.112;16.280;2022-09-19T08:32:33;0.82;;;0.82;;
54787;SDS011;59598;48.112;16.280;2022-09-19T08:35:07;0.80;;;0.80;;
54787;SDS011;59598;48.112;16.280;2022-09-19T08:37:41;0.80;;;0.80;;
54787;SDS011;59598;48.112;16.280;2022-09-19T08:40:15;1.20;;;0.80;;
54787;SDS011;59598;48.112;16.280;2022-09-19T08:43:59;1.73;;;0.60;;
54787;SDS011;59598;48.112;16.280;2022-09-19T08:49:03;1.13;;;0.73;;
54787;SDS011;59598;48.112;16.280;2022-09-19T08:52:08;0.80;;;0.80;;
54787;SDS011;59598;48.112;16.280;2022-09-19T08:55:05;0.70;;;0.60;;
54787;SDS011;59598;48.112;16.280;2022-09-19T08:57:59;1.55;;;0.80;;
54787;SDS011;59598;48.112;16.280;2022-09-19T09:00:38;0.60;;;0.60;;
54787;SDS011;59598;48.112;16.280;2022-09-19T09:03:20;0.70;;;0.70;;
54787;SDS011;59598;48.112;16.280;2022-09-19T09:15:25;0.95;;;0.85;;
54787;SDS011;59598;48.112;16.280;2022-09-19T09:18:32;0.88;;;0.88;;
54787;SDS011;59598;48.112;16.280;2022-09-19T09:21:41;0.85;;;0.85;;
54787;SDS011;59598;48.112;16.280;2022-09-19T09:24:39;0.70;;;0.70;;
54787;SDS011;59598;48.112;16.280;2022-09-19T09:27:37;0.70;;;0.70;;
54787;SDS011;59598;48.112;16.280;2022-09-19T09:30:21;1.48;;;0.77;;
54787;SDS011;59598;48.112;16.280;2022-09-19T09:32:56;0.82;;;0.82;;
54787;SDS011;59598;48.112;16.280;2022-09-19T09:35:38;0.77;;;0.77;;
54787;SDS011;59598;48.112;16.280;2022-09-19T09:38:26;0.60;;;0.60;;
54787;SDS011;59598;48.112;16.280;2022-09-19T09:41:21;0.85;;;0.80;;
54787;SDS011;59598;48.112;16.280;2022-09-19T09:56:25;0.77;;;0.77;;
54787;SDS011;59598;48.112;16.280;2022-09-19T10:05:42;0.90;;;0.90;;
54787;SDS011;59598;48.112;16.280;2022-09-19T10:11:39;0.65;;;0.65;;
54787;SDS011;59598;48.112;16.280;2022-09-19T10:14:31;2.03;;;1.20;;
54787;SDS011;59598;48.112;16.280;2022-09-19T10:17:08;0.88;;;0.88;;
54787;SDS011;59598;48.112;16.280;2022-09-19T10:19:41;0.90;;;0.90;;
54787;SDS011;59598;48.112;16.280;2022-09-19T10:22:21;0.88;;;0.88;;
54787;SDS011;59598;48.112;16.280;2022-09-19T10:24:54;0.80;;;0.80;;
54787;SDS011;59598;48.112;16.280;2022-09-19T10:30:13;1.17;;;1.05;;
54787;SDS011;59598;48.112;16.280;2022-09-19T10:32:52;1.00;;;1.00;;
54787;SDS011;59598;48.112;16.280;2022-09-19T10:35:31;0.98;;;0.98;;
54787;SDS011;59598;48.112;16.280;2022-09-19T10:38:11;0.90;;;0.90;;
54787;SDS011;59598;48.112;16.280;2022-09-19T10:40:55;1.58;;;1.30;;
54787;SDS011;59598;48.112;16.280;2022-09-19T10:43:37;1.40;;;1.05;;
54787;SDS011;59598;48.112;16.280;2022-09-19T10:46:45;1.20;;;1.10;;
54787;SDS011;59598;48.112;16.280;2022-09-19T10:49:31;1.27;;;1.17;;
54787;SDS011;59598;48.112;16.280;2022-09-19T10:52:22;1.17;;;1.17;;
54787;SDS011;59598;48.112;16.280;2022-09-19T10:55:04;0.90;;;0.80;;
54787;SDS011;59598;48.112;16.280;2022-09-19T10:57:41;1.42;;;1.20;;
54787;SDS011;59598;48.112;16.280;2022-09-19T11:00:31;1.33;;;1.00;;
54787;SDS011;59598;48.112;16.280;2022-09-19T11:03:29;1.30;;;1.00;;
54787;SDS011;59598;48.112;16.280;2022-09-19T11:06:12;1.05;;;0.95;;
54787;SDS011;59598;48.112;16.280;2022-09-19T11:08:48;1.10;;;1.10;;
54787;SDS011;59598;48.112;16.280;2022-09-19T11:26:18;1.48;;;0.90;;
54787;SDS011;59598;48.112;16.280;2022-09-19T11:38:00;1.25;;;1.00;;
54787;SDS011;59598;48.112;16.280;2022-09-19T11:47:05;1.00;;;1.00;;
54787;SDS011;59598;48.112;16.280;2022-09-19T11:59:45;1.20;;;1.10;;
54787;SDS011;59598;48.112;16.280;2022-09-19T12:14:23;2.85;;;1.30;;
54787;SDS011;59598;48.112;16.280;2022-09-19T12:17:12;1.40;;;1.30;;
54787;SDS011;59598;48.112;16.280;2022-09-19T12:19:56;1.17;;;1.13;;
54787;SDS011;59598;48.112;16.280;2022-09-19T12:22:38;0.85;;;0.85;;
54787;SDS011;59598;48.112;16.280;2022-09-19T12:25:54;1.27;;;1.27;;
54787;SDS011;59598;48.112;16.280;2022-09-19T12:28:35;1.60;;;1.50;;
54787;SDS011;59598;48.112;16.280;2022-09-19T12:31:19;1.60;;;1.50;;
54787;SDS011;59598;48.112;16.280;2022-09-19T12:34:03;1.98;;;1.63;;
54787;SDS011;59598;48.112;16.280;2022-09-19T12:37:03;1.58;;;1.48;;
54787;SDS011;59598;48.112;16.280;2022-09-19T12:42:27;2.65;;;1.45;;
54787;SDS011;59598;48.112;16.280;2022-09-19T12:45:27;1.95;;;1.75;;
54787;SDS011;59598;48.112;16.280;2022-09-19T12:51:23;1.52;;;1.17;;
54787;SDS011;59598;48.112;16.280;2022-09-19T12:54:13;2.88;;;1.45;;
54787;SDS011;59598;48.112;16.280;2022-09-19T12:56:57;5.25;;;1.52;;
54787;SDS011;59598;48.112;16.280;2022-09-19T12:59:35;1.80;;;1.50;;
54787;SDS011;59598;48.112;16.280;2022-09-19T13:04:51;2.33;;;2.13;;
54787;SDS011;59598;48.112;16.280;2022-09-19T13:08:00;2.85;;;1.80;;
54787;SDS011;59598;48.112;16.280;2022-09-19T13:16:11;1.95;;;1.80;;
54787;SDS011;59598;48.112;16.280;2022-09-19T13:18:49;2.88;;;1.70;;
54787;SDS011;59598;48.112;16.280;2022-09-19T13:21:42;2.20;;;1.50;;
54787;SDS011;59598;48.112;16.280;2022-09-19T13:27:18;1.40;;;1.30;;
54787;SDS011;59598;48.112;16.280;2022-09-19T13:29:52;5.15;;;1.60;;
54787;SDS011;59598;48.112;16.280;2022-09-19T13:35:28;1.83;;;1.30;;
54787;SDS011;59598;48.112;16.280;2022-09-19T13:38:24;1.33;;;1.10;;
54787;SDS011;59598;48.112;16.280;2022-09-19T13:41:34;1.27;;;1.17;;
54787;SDS011;59598;48.112;16.280;2022-09-19T13:44:28;1.10;;;1.10;;
54787;SDS011;59598;48.112;16.280;2022-09-19T13:47:19;1.05;;;1.05;;
54787;SDS011;59598;48.112;16.280;2022-09-19T13:50:05;1.70;;;0.95;;
54787;SDS011;59598;48.112;16.280;2022-09-19T13:52:53;1.20;;;1.10;;
54787;SDS011;59598;48.112;16.280;2022-09-19T13:55:34;1.10;;;1.10;;
54787;SDS011;59598;48.112;16.280;2022-09-19T13:58:16;1.15;;;1.05;;
54787;SDS011;59598;48.112;16.280;2022-09-19T14:03:57;1.13;;;0.93;;
54787;SDS011;59598;48.112;16.280;2022-09-19T14:06:58;1.10;;;1.00;;
54787;SDS011;59598;48.112;16.280;2022-09-19T14:09:41;1.10;;;1.00;;
54787;SDS011;59598;48.112;16.280;2022-09-19T14:21:06;2.17;;;1.27;;
54787;SDS011;59598;48.112;16.280;2022-09-19T14:23:48;1.00;;;0.90;;
54787;SDS011;59598;48.112;16.280;2022-09-19T14:29:35;1.40;;;1.30;;
54787;SDS011;59598;48.112;16.280;2022-09-19T14:41:03;2.05;;;1.05;;
54787;SDS011;59598;48.112;16.280;2022-09-19T14:43:55;1.10;;;1.10;;
54787;SDS011;59598;48.112;16.280;2022-09-19T14:46:45;0.95;;;0.90;;
54787;SDS011;59598;48.112;16.280;2022-09-19T14:49:29;0.82;;;0.80;;
54787;SDS011;59598;48.112;16.280;2022-09-19T14:52:13;1.10;;;1.00;;
54787;SDS011;59598;48.112;16.280;2022-09-19T14:54:51;1.42;;;1.02;;
54787;SDS011;59598;48.112;16.280;2022-09-19T14:57:29;0.90;;;0.90;;
54787;SDS011;59598;48.112;16.280;2022-09-19T15:00:18;0.98;;;0.98;;
54787;SDS011;59598;48.112;16.280;2022-09-19T15:02:58;1.13;;;1.02;;
54787;SDS011;59598;48.112;16.280;2022-09-19T15:05:40;2.10;;;0.93;;
54787;SDS011;59598;48.112;16.280;2022-09-19T15:08:37;0.90;;;0.90;;
54787;SDS011;59598;48.112;16.280;2022-09-19T15:11:07;1.00;;;1.00;;
54787;SDS011;59598;48.112;16.280;2022-09-19T15:13:47;1.10;;;1.00;;
54787;SDS011;59598;48.112;16.280;2022-09-19T15:16:25;1.55;;;1.05;;
54787;SDS011;59598;48.112;16.280;2022-09-19T15:18:57;1.30;;;1.20;;
54787;SDS011;59598;48.112;16.280;2022-09-19T15:21:31;0.93;;;0.93;;
54787;SDS011;59598;48.112;16.280;2022-09-19T15:24:08;1.58;;;1.15;;
54787;SDS011;59598;48.112;16.280;2022-09-19T15:26:46;2.67;;;1.20;;
54787;SDS011;59598;48.112;16.280;2022-09-19T15:29:29;1.38;;;1.23;;
54787;SDS011;59598;48.112;16.280;2022-09-19T15:32:27;1.92;;;1.35;;
54787;SDS011;59598;48.112;16.280;2022-09-19T15:35:06;1.27;;;1.13;;
54787;SDS011;59598;48.112;16.280;2022-09-19T15:37:45;1.30;;;1.10;;
54787;SDS011;59598;48.112;16.280;2022-09-19T15:40:22;1.10;;;1.10;;
54787;SDS011;59598;48.112;16.280;2022-09-19T15:42:56;2.47;;;1.33;;
54787;SDS011;59598;48.112;16.280;2022-09-19T15:50:59;2.83;;;1.15;;
54787;SDS011;59598;48.112;16.280;2022-09-19T15:53:38;1.38;;;1.27;;
54787;SDS011;59598;48.112;16.280;2022-09-19T15:56:16;2.28;;;1.23;;
54787;SDS011;59598;48.112;16.280;2022-09-19T16:01:30;1.30;;;1.20;;
54787;SDS011;59598;48.112;16.280;2022-09-19T16:09:41;2.35;;;1.38;;
54787;SDS011;59598;48.112;16.280;2022-09-19T16:15:19;1.30;;;1.20;;
54787;SDS011;59598;48.112;16.280;2022-09-19T16:34:30;1.20;;;1.10;;
54787;SDS011;59598;48.112;16.280;2022-09-19T16:37:19;2.70;;;1.40;;
54787;SDS011;59598;48.112;16.280;2022-09-19T16:42:40;1.20;;;1.10;;
54787;SDS011;59598;48.112;16.280;2022-09-19T16:45:13;1.98;;;1.48;;
54787;SDS011;59598;48.112;16.280;2022-09-19T16:48:11;1.50;;;1.38;;
54787;SDS011;59598;48.112;16.280;2022-09-19T16:50:42;1.65;;;1.05;;
54787;SDS011;59598;48.112;16.280;2022-09-19T16:53:16;1.83;;;1.25;;
54787;SDS011;59598;48.112;16.280;2022-09-19T16:55:48;2.22;;;1.60;;
54787;SDS011;59598;48.112;16.280;2022-09-19T16:58:22;2.33;;;1.50;;
54787;SDS011;59598;48.112;16.280;2022-09-19T17:01:01;1.27;;;1.17;;
54787;SDS011;59598;48.112;16.280;2022-09-19T17:03:32;1.08;;;1.00;;
54787;SDS011;59598;48.112;16.280;2022-09-19T17:06:04;1.13;;;1.02;;
54787;SDS011;59598;48.112;16.280;2022-09-19T17:08:36;2.30;;;1.30;;
54787;SDS011;59598;48.112;16.280;2022-09-19T17:11:11;2.10;;;1.25;;
54787;SDS011;59598;48.112;16.280;2022-09-19T17:13:42;1.70;;;1.60;;
54787;SDS011;59598;48.112;16.280;2022-09-19T17:16:15;3.70;;;1.38;;
54787;SDS011;59598;48.112;16.280;2022-09-19T17:18:51;1.65;;;1.50;;
54787;SDS011;59598;48.112;16.280;2022-09-19T17:21:23;1.27;;;1.17;;
54787;SDS011;59598;48.112;16.280;2022-09-19T17:26:31;1.45;;;1.15;;
54787;SDS011;59598;48.112;16.280;2022-09-19T17:29:04;1.52;;;1.38;;
54787;SDS011;59598;48.112;16.280;2022-09-19T17:31:37;1.67;;;1.30;;
54787;SDS011;59598;48.112;16.280;2022-09-19T17:34:13;1.70;;;1.60;;
54787;SDS011;59598;48.112;16.280;2022-09-19T17:36:49;1.85;;;1.30;;
54787;SDS011;59598;48.112;16.280;2022-09-19T17:39:20;2.17;;;1.23;;
54787;SDS011;59598;48.112;16.280;2022-09-19T17:41:52;3.08;;;1.40;;
54787;SDS011;59598;48.112;16.280;2022-09-19T17:44:23;1.30;;;1.10;;
54787;SDS011;59598;48.112;16.280;2022-09-19T17:46:54;1.38;;;1.27;;
54787;SDS011;59598;48.112;16.280;2022-09-19T17:49:27;2.20;;;1.38;;
54787;SDS011;59598;48.112;16.280;2022-09-19T17:52:01;1.58;;;1.40;;
54787;SDS011;59598;48.112;16.280;2022-09-19T17:54:33;1.30;;;1.20;;
54787;SDS011;59598;48.112;16.280;2022-09-19T17:57:06;1.25;;;1.20;;
54787;SDS011;59598;48.112;16.280;2022-09-19T17:59:38;2.25;;;1.13;;
54787;SDS011;59598;48.112;16.280;2022-09-19T18:02:09;3.28;;;1.50;;
54787;SDS011;59598;48.112;16.280;2022-09-19T18:05:02;1.40;;;1.25;;
54787;SDS011;59598;48.112;16.280;2022-09-19T18:07:37;2.97;;;2.10;;
54787;SDS011;59598;48.112;16.280;2022-09-19T18:10:09;2.63;;;1.13;;
54787;SDS011;59598;48.112;16.280;2022-09-19T18:12:43;4.18;;;1.80;;
54787;SDS011;59598;48.112;16.280;2022-09-19T18:15:15;1.63;;;1.25;;
54787;SDS011;59598;48.112;16.280;2022-09-19T18:17:49;1.92;;;1.50;;
54787;SDS011;59598;48.112;16.280;2022-09-19T18:20:30;1.55;;;1.35;;
54787;SDS011;59598;48.112;16.280;2022-09-19T18:23:02;1.35;;;1.30;;
54787;SDS011;59598;48.112;16.280;2022-09-19T18:25:36;1.65;;;1.40;;
54787;SDS011;59598;48.112;16.280;2022-09-19T18:28:11;3.33;;;1.52;;
54787;SDS011;59598;48.112;16.280;2022-09-19T18:30:45;1.33;;;1.10;;
54787;SDS011;59598;48.112;16.280;2022-09-19T18:33:17;1.25;;;1.20;;
54787;SDS011;59598;48.112;16.280;2022-09-19T18:36:01;3.00;;;1.60;;
54787;SDS011;59598;48.112;16.280;2022-09-19T18:38:44;2.03;;;1.70;;
54787;SDS011;59598;48.112;16.280;2022-09-19T18:41:17;1.88;;;1.70;;
54787;SDS011;59598;48.112;16.280;2022-09-19T18:43:52;2.90;;;1.40;;
54787;SDS011;59598;48.112;16.280;2022-09-19T18:46:25;1.63;;;1.30;;
54787;SDS011;59598;48.112;16.280;2022-09-19T18:48:57;2.70;;;1.88;;
54787;SDS011;59598;48.112;16.280;2022-09-19T18:51:33;1.60;;;1.50;;
54787;SDS011;59598;48.112;16.280;2022-09-19T18:54:13;2.58;;;1.38;;
54787;SDS011;59598;48.112;16.280;2022-09-19T18:56:47;1.63;;;1.50;;
54787;SDS011;59598;48.112;16.280;2022-09-19T18:59:21;3.95;;;1.33;;
54787;SDS011;59598;48.112;16.280;2022-09-19T19:01:57;1.58;;;1.48;;
54787;SDS011;59598;48.112;16.280;2022-09-19T19:07:03;1.80;;;1.08;;
54787;SDS011;59598;48.112;16.280;2022-09-19T19:09:39;2.55;;;1.10;;
54787;SDS011;59598;48.112;16.280;2022-09-19T19:12:10;1.60;;;1.50;;
54787;SDS011;59598;48.112;16.280;2022-09-19T19:14:47;3.67;;;1.50;;
54787;SDS011;59598;48.112;16.280;2022-09-19T19:17:22;1.33;;;1.23;;
54787;SDS011;59598;48.112;16.280;2022-09-19T19:20:02;1.30;;;1.20;;
54787;SDS011;59598;48.112;16.280;2022-09-19T19:22:37;1.70;;;1.20;;